Split Lake, Canada
Current Conditions -  °F | °C
As of 8:41 PM on Wednesday 17 Dec 2014 (Local Time) from CYGX Reporting Station
Light Snow Light Snow  
Wind Chill: -2°   Ceiling: 900
Heat Index: 14°   Visibility: 15mi
Dew Point: 10°   Wind: 16mph
Humidity: 86%   Direction: 230°SW
Pressure: 30.12"   Gusts: NA
Location:  56.25°N, 96.1°W
Report Text: CYGX 180241Z 23014KT 15SM -SN OVC009 M10/M12 A3012 RMK NS8 SLP215
Loading
Personal Weather Stations






























Interactive Weather Map New forecast layout! Learn more

10-Day Weather Forecast

Advertisements
Track Severe Weather on mobile